createdAt,value
2022-09-07T00:01:28.297Z,11.50
2022-09-07T00:04:00.670Z,11.30
2022-09-07T00:06:28.332Z,11.40
2022-09-07T00:08:56.224Z,11.30
2022-09-07T00:11:24.072Z,11.30
2022-09-07T00:13:51.559Z,11.30
2022-09-07T00:16:28.925Z,11.20
2022-09-07T00:19:00.883Z,11.20
2022-09-07T00:21:29.531Z,11.10
2022-09-07T00:24:05.138Z,11.20
2022-09-07T00:26:35.475Z,11.00
2022-09-07T00:29:05.356Z,11.00
2022-09-07T00:31:33.724Z,11.00
2022-09-07T00:34:12.339Z,11.00
2022-09-07T00:36:56.449Z,11.00
2022-09-07T00:39:33.568Z,11.00
2022-09-07T00:42:13.877Z,10.80
2022-09-07T00:45:10.757Z,10.70
2022-09-07T00:47:48.244Z,10.80
2022-09-07T00:50:34.444Z,10.70
2022-09-07T00:53:17.936Z,10.70
2022-09-07T00:55:47.601Z,10.70
2022-09-07T00:58:16.118Z,10.70
2022-09-07T01:00:46.500Z,10.60
2022-09-07T01:03:16.420Z,10.70
2022-09-07T01:06:06.322Z,10.70
2022-09-07T01:08:38.218Z,10.60
2022-09-07T01:11:06.974Z,10.60
2022-09-07T01:13:35.278Z,10.60
2022-09-07T01:16:06.263Z,10.70
2022-09-07T01:18:52.923Z,10.60
2022-09-07T01:21:32.743Z,10.60
2022-09-07T01:24:26.525Z,10.60
2022-09-07T01:27:12.505Z,10.50
2022-09-07T01:29:56.152Z,10.50
2022-09-07T01:32:42.107Z,10.50
2022-09-07T01:35:33.140Z,10.60
2022-09-07T01:38:13.513Z,10.60
2022-09-07T01:40:44.294Z,10.60
2022-09-07T01:43:25.233Z,10.60
2022-09-07T01:45:55.947Z,10.60
2022-09-07T01:48:26.020Z,10.60
2022-09-07T01:51:24.531Z,10.80
2022-09-07T01:54:05.570Z,10.90
2022-09-07T01:56:40.982Z,10.90
2022-09-07T01:59:27.705Z,10.80
2022-09-07T02:02:19.355Z,10.90
2022-09-07T02:04:56.332Z,10.90
2022-09-07T02:07:35.281Z,10.80
2022-09-07T02:10:27.517Z,10.80
2022-09-07T02:13:17.348Z,10.90
2022-09-07T02:15:56.955Z,10.70
2022-09-07T02:18:27.733Z,10.70
2022-09-07T02:20:59.062Z,10.60
2022-09-07T02:23:36.235Z,10.60
2022-09-07T02:26:08.656Z,10.60
2022-09-07T02:28:42.590Z,10.60
2022-09-07T02:31:13.389Z,10.80
2022-09-07T02:33:42.615Z,10.70
2022-09-07T02:36:12.093Z,10.70
2022-09-07T02:38:48.979Z,10.60
2022-09-07T02:41:46.869Z,10.60
2022-09-07T02:44:20.254Z,10.70
2022-09-07T02:47:00.132Z,10.60
2022-09-07T02:49:44.376Z,10.60
2022-09-07T02:52:41.462Z,10.50
2022-09-07T02:55:20.433Z,10.50
2022-09-07T02:58:18.880Z,10.40
2022-09-07T03:01:16.112Z,10.40
2022-09-07T03:04:24.502Z,10.50
2022-09-07T03:06:59.642Z,10.60
2022-09-07T03:09:32.225Z,10.60
2022-09-07T03:12:03.382Z,10.80
2022-09-07T03:14:33.501Z,10.90
2022-09-07T03:17:04.138Z,10.90
2022-09-07T03:19:34.415Z,11.00
2022-09-07T03:22:01.875Z,11.30
2022-09-07T03:24:29.765Z,11.40
2022-09-07T03:26:58.430Z,11.50
2022-09-07T03:29:39.133Z,11.60
2022-09-07T03:32:11.357Z,11.70
2022-09-07T03:34:38.663Z,11.80
2022-09-07T03:37:06.274Z,11.90
2022-09-07T03:39:35.551Z,12.00
2022-09-07T03:42:03.029Z,12.00
2022-09-07T03:44:36.451Z,12.10
2022-09-07T03:47:07.828Z,12.30
2022-09-07T03:49:36.271Z,12.30
2022-09-07T03:52:04.546Z,12.30
2022-09-07T03:54:33.604Z,12.40
2022-09-07T03:57:03.562Z,12.50
2022-09-07T03:59:31.264Z,12.50
2022-09-07T04:02:01.222Z,12.60
2022-09-07T04:04:29.167Z,12.70
2022-09-07T04:06:56.585Z,12.70
2022-09-07T04:09:24.306Z,12.80
2022-09-07T04:11:54.458Z,12.90
2022-09-07T04:14:22.379Z,12.70
2022-09-07T04:16:52.784Z,12.70
2022-09-07T04:19:20.097Z,12.70
2022-09-07T04:21:48.014Z,12.60
2022-09-07T04:24:16.756Z,12.60
2022-09-07T04:26:45.338Z,12.60
2022-09-07T04:29:13.794Z,12.60
2022-09-07T04:31:41.486Z,12.60
2022-09-07T04:34:10.131Z,12.60
2022-09-07T04:36:40.610Z,12.60
2022-09-07T04:39:08.285Z,12.70
2022-09-07T04:41:35.934Z,12.80
2022-09-07T04:44:04.864Z,12.80
2022-09-07T04:46:38.923Z,12.90
2022-09-07T04:49:19.360Z,13.00
2022-09-07T04:51:49.832Z,13.00
2022-09-07T04:54:37.610Z,13.10
2022-09-07T04:57:06.034Z,13.20
2022-09-07T04:59:34.120Z,13.30
2022-09-07T05:02:02.935Z,13.40
2022-09-07T05:04:31.554Z,13.60
2022-09-07T05:07:02.625Z,13.80
2022-09-07T05:09:33.828Z,14.10
2022-09-07T05:12:02.092Z,14.40
2022-09-07T05:14:29.542Z,14.50
2022-09-07T05:16:57.600Z,14.70
2022-09-07T05:19:25.550Z,14.80
2022-09-07T05:21:53.530Z,14.90
2022-09-07T05:24:21.385Z,14.90
2022-09-07T05:26:48.857Z,14.90
2022-09-07T05:32:14.810Z,15.20
2022-09-07T05:34:46.753Z,15.40
2022-09-07T05:37:22.337Z,15.60
2022-09-07T05:39:52.247Z,15.80
2022-09-07T05:42:28.527Z,16.10
2022-09-07T05:44:56.966Z,16.20
2022-09-07T05:47:30.351Z,16.40
2022-09-07T05:50:11.639Z,16.40
2022-09-07T05:52:42.003Z,16.50
2022-09-07T05:55:28.839Z,16.50
2022-09-07T05:58:07.083Z,16.50
2022-09-07T06:00:37.477Z,16.70
2022-09-07T06:03:15.716Z,16.70
2022-09-07T06:05:43.992Z,16.80
2022-09-07T06:08:15.700Z,16.80
2022-09-07T06:10:52.229Z,16.80
2022-09-07T06:13:27.455Z,16.90
2022-09-07T06:16:04.914Z,16.80
2022-09-07T06:18:50.630Z,17.00
2022-09-07T06:21:26.962Z,17.00
2022-09-07T06:23:55.621Z,17.30
2022-09-07T06:26:29.547Z,17.90
2022-09-07T06:34:58.217Z,23.30
2022-09-07T06:37:26.603Z,25.70
2022-09-07T06:39:54.797Z,27.70
2022-09-07T06:42:33.336Z,29.60
2022-09-07T06:45:07.293Z,31.30
2022-09-07T06:47:38.219Z,32.70
2022-09-07T06:50:14.472Z,33.90
2022-09-07T06:55:52.219Z,34.90
2022-09-07T06:58:25.534Z,34.90
2022-09-07T07:00:54.220Z,34.70
2022-09-07T07:03:22.564Z,35.00
2022-09-07T07:06:02.161Z,35.30
2022-09-07T07:08:36.442Z,35.60
2022-09-07T07:11:34.531Z,35.80
2022-09-07T07:14:07.965Z,36.30
2022-09-07T07:16:36.922Z,36.60
2022-09-07T07:19:08.746Z,36.10
2022-09-07T07:22:07.353Z,35.90
2022-09-07T07:24:29.016Z,35.90
2022-09-07T07:27:07.665Z,36.40
2022-09-07T07:29:46.705Z,37.00
2022-09-07T07:32:21.226Z,37.70
2022-09-07T07:34:49.177Z,37.80
2022-09-07T07:37:17.510Z,37.80
2022-09-07T07:42:51.787Z,38.50
2022-09-07T07:45:55.243Z,38.60
2022-09-07T07:48:44.679Z,37.60
2022-09-07T07:51:14.331Z,35.80
2022-09-07T07:53:42.854Z,35.20
2022-09-07T07:56:14.040Z,34.70
2022-09-07T07:59:00.299Z,34.60
2022-09-07T08:01:30.671Z,33.70
2022-09-07T08:04:04.549Z,31.90
2022-09-07T08:06:35.315Z,29.80
2022-09-07T08:09:14.254Z,27.90
2022-09-07T08:11:47.954Z,26.10
2022-09-07T08:14:16.841Z,24.80
2022-09-07T08:16:49.324Z,23.70
2022-09-07T08:19:16.981Z,22.80
2022-09-07T08:21:47.012Z,22.20
2022-09-07T08:24:17.458Z,21.80
2022-09-07T08:26:49.892Z,21.60
2022-09-07T08:29:30.181Z,21.40
2022-09-07T08:32:10.897Z,21.30
2022-09-07T08:34:41.243Z,21.00
2022-09-07T08:37:11.463Z,20.60
2022-09-07T08:39:38.970Z,20.50
2022-09-07T08:42:33.938Z,20.30
2022-09-07T08:45:15.852Z,20.30
2022-09-07T08:47:49.603Z,20.00
2022-09-07T08:50:50.463Z,19.80
2022-09-07T08:53:25.303Z,19.70
2022-09-07T08:56:09.672Z,19.90
2022-09-07T08:58:49.449Z,20.30
2022-09-07T09:01:35.629Z,21.10
2022-09-07T09:04:15.986Z,21.90
2022-09-07T09:07:28.466Z,22.40
2022-09-07T09:10:19.897Z,22.50
2022-09-07T09:13:20.182Z,22.30
2022-09-07T09:16:36.704Z,22.00
2022-09-07T09:22:42.487Z,21.40
2022-09-07T09:25:37.797Z,21.00
2022-09-07T09:28:14.584Z,20.80
2022-09-07T09:30:47.261Z,20.80
2022-09-07T09:33:24.530Z,20.70
2022-09-07T09:35:59.533Z,20.60
2022-09-07T09:38:45.308Z,20.80
2022-09-07T09:41:17.041Z,20.60
2022-09-07T09:43:49.241Z,20.60
2022-09-07T09:46:29.649Z,20.50
2022-09-07T09:49:06.439Z,20.50
2022-09-07T09:54:48.204Z,20.90
2022-09-07T10:06:24.392Z,21.10
2022-09-07T10:09:18.508Z,21.10
2022-09-07T10:12:10.061Z,21.10
2022-09-07T10:14:49.864Z,21.00
2022-09-07T10:17:47.134Z,20.70
2022-09-07T10:20:24.272Z,20.60
2022-09-07T10:23:01.232Z,20.60
2022-09-07T10:25:40.607Z,20.70
2022-09-07T10:31:40.253Z,20.50
2022-09-07T10:34:31.743Z,20.40
2022-09-07T10:37:10.228Z,20.30
2022-09-07T10:39:42.481Z,20.20
2022-09-07T10:42:11.299Z,20.10
2022-09-07T10:45:02.224Z,20.10
2022-09-07T10:48:11.094Z,19.90
2022-09-07T10:51:05.139Z,19.70
2022-09-07T10:57:24.209Z,19.20
2022-09-07T11:00:13.167Z,19.40
2022-09-07T11:03:25.963Z,19.50
2022-09-07T11:06:18.690Z,19.60
2022-09-07T11:09:41.959Z,19.50
2022-09-07T11:12:22.079Z,19.70
2022-09-07T11:15:12.466Z,20.00
2022-09-07T11:17:53.045Z,20.10
2022-09-07T11:20:38.858Z,20.30
2022-09-07T11:23:41.025Z,20.50
2022-09-07T11:26:33.092Z,20.60
2022-09-07T11:29:29.476Z,20.70
2022-09-07T11:32:08.653Z,21.00
2022-09-07T11:34:46.646Z,21.10
2022-09-07T11:38:04.076Z,20.90
2022-09-07T11:41:18.249Z,20.80
2022-09-07T11:44:33.546Z,20.50
2022-09-07T11:47:21.498Z,20.60
2022-09-07T11:49:59.489Z,20.40
2022-09-07T11:52:44.884Z,20.20
2022-09-07T11:55:29.716Z,20.10
2022-09-07T11:58:29.950Z,20.20
2022-09-07T12:01:36.762Z,20.20
2022-09-07T12:04:19.718Z,20.10
2022-09-07T12:07:18.834Z,20.10
2022-09-07T12:10:24.878Z,20.00
2022-09-07T12:13:25.207Z,19.70
2022-09-07T12:15:57.139Z,19.60
2022-09-07T12:19:07.040Z,19.40
2022-09-07T12:21:53.459Z,19.40
2022-09-07T12:24:34.928Z,19.50
2022-09-07T12:27:16.609Z,19.40
2022-09-07T12:29:45.592Z,19.20
2022-09-07T12:35:34.118Z,19.00
2022-09-07T12:38:26.983Z,19.10
2022-09-07T12:41:01.592Z,19.10
2022-09-07T12:43:37.079Z,19.00
2022-09-07T12:46:39.753Z,19.00
2022-09-07T12:49:25.777Z,18.90
2022-09-07T12:52:27.872Z,18.90
2022-09-07T12:55:28.461Z,18.70
2022-09-07T12:58:19.837Z,18.70
2022-09-07T13:01:15.287Z,18.70
2022-09-07T13:04:37.907Z,18.70
2022-09-07T13:07:24.385Z,18.80
2022-09-07T13:10:05.317Z,18.70
2022-09-07T13:12:57.279Z,18.80
2022-09-07T13:16:15.016Z,18.70
2022-09-07T13:18:45.240Z,18.60
2022-09-07T13:21:17.738Z,18.60
2022-09-07T13:24:50.296Z,18.60
2022-09-07T13:27:39.457Z,18.60
2022-09-07T13:30:16.717Z,18.50
2022-09-07T13:35:32.381Z,18.50
2022-09-07T13:38:09.605Z,18.60
2022-09-07T13:40:45.107Z,18.60
2022-09-07T13:43:20.066Z,18.60
2022-09-07T13:45:53.196Z,18.60
2022-09-07T13:48:34.572Z,18.50
2022-09-07T13:51:29.151Z,18.40
2022-09-07T13:53:56.943Z,18.40
2022-09-07T13:56:42.207Z,18.30
2022-09-07T13:59:25.110Z,18.30
2022-09-07T14:01:58.930Z,18.30
2022-09-07T14:04:50.740Z,18.30
2022-09-07T14:07:28.862Z,18.30
2022-09-07T14:10:22.835Z,18.10
2022-09-07T14:13:05.339Z,18.10
2022-09-07T14:15:45.605Z,18.00
2022-09-07T14:18:20.074Z,17.80
2022-09-07T14:20:51.281Z,17.70
2022-09-07T14:23:31.511Z,17.50
2022-09-07T14:26:25.634Z,17.50
2022-09-07T14:28:55.711Z,17.50
2022-09-07T14:31:41.329Z,17.50
2022-09-07T14:34:10.035Z,17.40
2022-09-07T14:36:45.899Z,17.40
2022-09-07T14:39:17.896Z,17.40
2022-09-07T14:41:46.757Z,17.40
2022-09-07T14:44:39.054Z,17.20
2022-09-07T14:47:43.982Z,17.20
2022-09-07T14:50:37.133Z,17.20
2022-09-07T14:56:14.520Z,17.20
2022-09-07T14:58:42.288Z,17.20
2022-09-07T15:01:37.458Z,17.20
2022-09-07T15:04:28.281Z,17.20
2022-09-07T15:07:47.781Z,17.10
2022-09-07T15:10:21.160Z,17.20
2022-09-07T15:12:56.776Z,17.10
2022-09-07T15:15:37.177Z,17.10
2022-09-07T15:18:55.592Z,17.20
2022-09-07T15:21:45.055Z,17.10
2022-09-07T15:24:17.976Z,17.20
2022-09-07T15:27:03.194Z,17.10
2022-09-07T15:29:33.478Z,17.10
2022-09-07T15:32:04.799Z,17.20
2022-09-07T15:34:35.626Z,17.20
2022-09-07T15:38:01.226Z,17.00
2022-09-07T15:40:01.920Z,17.00
2022-09-07T15:45:22.334Z,16.90
2022-09-07T15:47:52.833Z,16.90
2022-09-07T15:50:44.222Z,16.80
2022-09-07T15:56:14.220Z,16.80
2022-09-07T15:58:46.967Z,16.70
2022-09-07T16:04:15.246Z,16.60
2022-09-07T16:06:47.871Z,16.60
2022-09-07T16:09:17.453Z,16.40
2022-09-07T16:11:51.231Z,16.50
2022-09-07T16:14:28.848Z,16.40
2022-09-07T16:19:48.649Z,16.40
2022-09-07T16:25:10.305Z,16.30
2022-09-07T16:27:38.406Z,16.20
2022-09-07T16:30:10.569Z,16.10
2022-09-07T16:32:45.527Z,16.10
2022-09-07T16:35:13.669Z,16.00
2022-09-07T16:38:43.587Z,15.90
2022-09-07T16:40:30.721Z,15.80
2022-09-07T16:42:58.373Z,15.70
2022-09-07T16:48:16.733Z,15.60
2022-09-07T16:50:55.417Z,15.60
2022-09-07T16:53:39.647Z,15.60
2022-09-07T16:56:09.613Z,15.40
2022-09-07T16:58:42.928Z,15.40
2022-09-07T17:01:13.629Z,15.20
2022-09-07T17:03:56.168Z,15.20
2022-09-07T17:06:30.031Z,15.10
2022-09-07T17:08:59.687Z,15.00
2022-09-07T17:11:33.651Z,15.10
2022-09-07T17:14:08.933Z,15.00
2022-09-07T17:16:39.496Z,14.90
2022-09-07T17:22:12.589Z,14.90
2022-09-07T17:24:41.295Z,14.70
2022-09-07T17:27:13.377Z,14.70
2022-09-07T17:29:42.971Z,14.70
2022-09-07T17:32:27.819Z,14.60
2022-09-07T17:34:58.970Z,14.50
2022-09-07T17:37:29.566Z,14.40
2022-09-07T17:39:57.623Z,14.50
2022-09-07T17:43:38.764Z,14.40
2022-09-07T17:45:22.636Z,14.30
2022-09-07T17:47:56.289Z,14.30
2022-09-07T17:50:23.854Z,14.20
2022-09-07T17:52:53.943Z,14.10
2022-09-07T17:55:28.813Z,14.00
2022-09-07T17:57:57.119Z,14.00
2022-09-07T18:00:29.207Z,13.90
2022-09-07T18:03:00.843Z,13.80
2022-09-07T18:05:33.661Z,13.80
2022-09-07T18:08:01.125Z,13.70
2022-09-07T18:13:35.662Z,13.70
2022-09-07T18:16:19.621Z,13.60
2022-09-07T18:18:49.009Z,13.50
2022-09-07T18:21:19.640Z,13.60
2022-09-07T18:23:54.775Z,13.40
2022-09-07T18:26:26.699Z,13.40
2022-09-07T18:29:05.622Z,13.40
2022-09-07T18:31:36.726Z,13.30
2022-09-07T18:34:08.183Z,13.20
2022-09-07T18:36:39.673Z,13.20
2022-09-07T18:39:07.752Z,13.10
2022-09-07T18:41:34.982Z,13.20
2022-09-07T18:44:03.069Z,13.10
2022-09-07T18:46:30.359Z,13.10
2022-09-07T18:48:58.265Z,13.00
2022-09-07T18:51:27.207Z,13.00
2022-09-07T18:53:55.632Z,12.90
2022-09-07T18:56:23.892Z,13.00
2022-09-07T18:58:59.987Z,12.90
2022-09-07T19:01:32.058Z,12.80
2022-09-07T19:04:04.985Z,12.80
2022-09-07T19:06:32.759Z,12.80
2022-09-07T19:09:04.937Z,12.70
2022-09-07T19:11:38.447Z,12.70
2022-09-07T19:14:08.213Z,12.60
2022-09-07T19:16:36.627Z,12.60
2022-09-07T19:19:09.213Z,12.60
2022-09-07T19:21:39.492Z,12.60
2022-09-07T19:24:08.433Z,12.50
2022-09-07T19:26:41.836Z,12.50
2022-09-07T19:29:16.953Z,12.40
2022-09-07T19:32:05.000Z,12.40
2022-09-07T19:34:39.962Z,12.40
2022-09-07T19:37:09.102Z,12.40
2022-09-07T19:39:37.189Z,12.30
2022-09-07T19:42:13.875Z,12.30
2022-09-07T19:44:41.420Z,12.40
2022-09-07T19:47:09.374Z,12.20
2022-09-07T19:49:38.119Z,12.20
2022-09-07T19:52:11.710Z,12.10
2022-09-07T19:54:42.458Z,12.20
2022-09-07T19:57:12.166Z,12.10
2022-09-07T19:59:43.257Z,12.00
2022-09-07T20:02:11.774Z,12.10
2022-09-07T20:04:41.704Z,12.00
2022-09-07T20:07:13.517Z,12.00
2022-09-07T20:09:43.918Z,11.90
2022-09-07T20:12:11.138Z,12.00
2022-09-07T20:14:39.120Z,11.80
2022-09-07T20:17:06.366Z,11.90
2022-09-07T20:19:34.328Z,11.80
2022-09-07T20:22:09.266Z,11.80
2022-09-07T20:24:36.510Z,11.90
2022-09-07T20:27:12.303Z,11.80
2022-09-07T20:29:42.990Z,11.80
2022-09-07T20:32:10.489Z,11.60
2022-09-07T20:34:40.190Z,11.60
2022-09-07T20:37:11.051Z,11.50
2022-09-07T20:39:41.083Z,11.60
2022-09-07T20:42:08.923Z,11.50
2022-09-07T20:44:36.324Z,11.60
2022-09-07T20:47:07.371Z,11.40
2022-09-07T20:49:35.665Z,11.50
2022-09-07T20:52:13.957Z,11.50
2022-09-07T20:55:07.070Z,11.30
2022-09-07T20:57:38.193Z,11.40
2022-09-07T21:00:06.118Z,11.20
2022-09-07T21:02:33.621Z,11.30
2022-09-07T21:05:10.501Z,11.20
2022-09-07T21:07:42.010Z,11.10
2022-09-07T21:10:12.637Z,11.10
2022-09-07T21:12:50.540Z,11.10
2022-09-07T21:15:18.664Z,11.20
2022-09-07T21:17:46.040Z,11.00
2022-09-07T21:20:16.549Z,10.90
2022-09-07T21:22:44.125Z,10.90
2022-09-07T21:25:11.258Z,10.90
2022-09-07T21:27:39.239Z,10.90
2022-09-07T21:30:07.398Z,10.80
2022-09-07T21:32:34.502Z,10.80
2022-09-07T21:35:05.425Z,10.90
2022-09-07T21:37:32.629Z,10.80
2022-09-07T21:40:01.272Z,10.70
2022-09-07T21:42:30.357Z,10.80
2022-09-07T21:44:58.046Z,10.70
2022-09-07T21:47:25.509Z,10.80
2022-09-07T21:49:53.233Z,10.70
2022-09-07T21:52:21.286Z,10.70
2022-09-07T21:54:48.685Z,10.70
2022-09-07T21:57:17.605Z,10.70
2022-09-07T21:59:45.597Z,10.60
2022-09-07T22:02:19.511Z,10.70
2022-09-07T22:04:46.983Z,10.60
2022-09-07T22:07:14.682Z,10.60
2022-09-07T22:09:42.147Z,10.60
2022-09-07T22:12:09.492Z,10.60
2022-09-07T22:14:36.674Z,10.50
2022-09-07T22:17:04.751Z,10.40
2022-09-07T22:19:35.819Z,10.50
2022-09-07T22:22:03.137Z,10.40
2022-09-07T22:24:31.179Z,10.40
2022-09-07T22:26:59.006Z,10.40
2022-09-07T22:29:27.011Z,10.30
2022-09-07T22:32:04.696Z,10.30
2022-09-07T22:34:33.719Z,10.20
2022-09-07T22:37:01.263Z,10.20
2022-09-07T22:39:28.746Z,10.20
2022-09-07T22:41:56.269Z,10.20
2022-09-07T22:44:30.610Z,10.20
2022-09-07T22:46:59.165Z,10.10
2022-09-07T22:49:27.212Z,10.00
2022-09-07T22:51:54.683Z,10.00
2022-09-07T22:54:23.270Z,10.00
2022-09-07T22:56:50.748Z,10.00
2022-09-07T22:59:20.699Z,10.00
2022-09-07T23:01:51.429Z,10.00
2022-09-07T23:04:19.285Z,10.00
2022-09-07T23:06:46.519Z,10.00
2022-09-07T23:09:18.843Z,9.90
2022-09-07T23:11:47.599Z,9.90
2022-09-07T23:14:25.300Z,9.90
2022-09-07T23:17:04.032Z,9.90
2022-09-07T23:19:31.896Z,9.90
2022-09-07T23:21:59.877Z,9.80
2022-09-07T23:24:30.673Z,9.80
2022-09-07T23:27:07.500Z,9.70
2022-09-07T23:29:37.090Z,9.80
2022-09-07T23:32:06.716Z,9.80
2022-09-07T23:34:36.718Z,9.70
2022-09-07T23:37:10.405Z,9.70
2022-09-07T23:39:38.823Z,9.70
2022-09-07T23:42:12.031Z,9.70
2022-09-07T23:44:44.038Z,9.50
2022-09-07T23:47:13.584Z,9.60
2022-09-07T23:49:41.597Z,9.50
2022-09-07T23:52:13.474Z,9.50
2022-09-07T23:54:40.993Z,9.50
2022-09-07T23:57:10.224Z,9.50
2022-09-07T23:59:40.448Z,9.50
